Airfield :
LOGIN :

Register | Disclaimer

   EN    FR    IT 

 










Legend :    VFR   Marginal VFR   IFR   Intensive IFR   Very Intensive IFR
Visi :
Ceiling :
>= 8 km
>= 3000ft
5 to 8 km
1000 to 3000 ft
1500m to 5 km
500 to 1000 ft
800 to 1500m
200 to 500 ft
< 800m
< 200 ft
Symbols :   Thunderstorms  Fog  Heavy snow  Heavy precipitations  Wind > 20 kt
SIGMETs :     Misc.  Thunderstorms  Icing  Turbulence  Mountain Waves  Volcanic Ashes







- Airport Elevation : 158 ft
- IATA code : QAR


EHDL - Deelen Airbase

CURRENT METAR :
  • 190725Z AUTO 26011KT 200V320 9999 BKN050 BKN059 23/15 Q1007 BLU

EXPIRED METARs :
  • 190655Z AUTO 18006KT 120V270 9999 OVC110 24/15 Q1007 BLU
  • 190625Z AUTO 14004KT 080V210 9999 BKN330 23/15 Q1007 BLU
  • 190555Z AUTO 14003KT 080V200 9999 FEW290 BKN350 21/15 Q1007 BLU
  • 190525Z AUTO 12004KT 060V210 9999 NCD 20/15 Q1007 BLU
  • 190455Z AUTO 11003KT 060V180 9999 BKN330 18/15 Q1007 BLU

TAF TAF EHDL
Valid from the 19 at 05:00 until the 19 at 17:00 UTC


190457Z 1905/1917 13005KT CAVOK
BECMG 1906/1909 18008KT
PROB30
TEMPO 1907/1912 VRB15G25KT 3000 SHRA TSRA SCT050CB SCT100
TEMPO 1912/1917 VRB15G30KT 3000 SHRA TSRA SCT040CB SCT100
PROB30
TEMPO 1912/1917 VRB20G50KT 1500 +TSRA TSRAGR SCT018 SCT035CB BKN100
No reported NOTAMs for that airfield.
1 SIGMET reported for the Amsterdam FIR (EHAA) :
 
Frequent thunderstorms
EHAA SIGMET 2 VALID 190730/190930 EHDB
EHAA AMSTERDAM FIR FRQ TS OBS WI N5126 E00455 - N5206 E00434 - N5221 E00457 - N5203 E00521 - N5117 E00530 - N5126 E00455 TOP FL360 MOV NE 30KT WKN=



MET'MAP, your aeronautical weather chart ! - Copyright ORBIFLY December 2007 - Disclaimer

ORBIFLY MET'MAP TEAM :

Programming & Development : Alexandra Zaïnal
Concept & Development : Baudouin d'Aumeries
Co-Development & Prog : Marc-Olivier Méhu
Technical & hardware support : Manuel Goepfert

Contact : metmap@orbifly.com




SOURCES & CREDITS :

   NOAA